Latest Coastal Weather Observations for Port Hedland

IDW60701

Issued at 2:55 pm WST Friday 24 October 2014 (issued every 10 minutes, with the page automatically refreshed every 10 minutes)

About coastal observations | Map of coastal stations | Coastal observations for WA | Marine services | Other Formats
Station Details ID: 004032 Name: PORT HEDLAND AIRPORT Lat: -20.37 Lon: 118.63 Height: 6.4 m
Data from the previous 72 hours. | See also: Recent months at Port Hedland
Date/Time
WST
Temp

°C
Wind Pressure Rain
since 9am
mm
Weather Cloud Vis
km
Sea
Height
m
Swell
Dir
 
Speed
knots
Gust
knots
hPa Trend Height
m
Period
s
Dir
24/02:30pm 31.0 N 16 19 1008.8 - 0.0 - - 10 - - - -
24/02:00pm 31.9 N 16 20 1009.0 - 0.0 - - 10 - - - -
24/01:30pm 32.3 NNE 14 17 1009.4 - 0.0 - - 10 - - - -
24/01:00pm 32.7 N 11 15 1009.5 - 0.0 - - 10 - - - -
24/12:30pm 33.7 N 11 14 1009.8 - 0.0 - - 10 - - - -
24/12:00pm 35.0 NNE 11 13 1010.0 - 0.0 - - 10 - - - -
24/11:30am 33.7 NNE 10 13 1010.3 - 0.0 - - 10 - - - -
24/11:00am 33.9 N 7 12 1010.6 - 0.0 - - 10 - - - -
24/10:30am 32.5 N 7 10 1011.0 - 0.0 - - 10 - - - -
24/10:00am 32.6 NNE 9 11 1011.3 - 0.0 - - 10 - - - -
24/09:30am 34.0 ESE 7 10 1011.5 - 0.0 - - 10 - - - -
24/09:00am 32.5 ESE 7 11 1011.6 - 0.0 - - 10 - - - -
24/08:30am 31.3 ESE 8 10 1011.7 - 0.0 - - 10 - - - -
24/08:00am 29.5 ESE 9 12 1011.5 - 0.0 - - 10 - - - -
24/07:30am 27.8 ESE 8 11 1011.4 - 0.0 - - 10 - - - -
24/07:00am 25.7 E 9 12 1011.4 - 0.0 - - 10 - - - -
24/06:30am 23.7 E 7 9 1011.2 - 0.0 - - 10 - - - -
24/06:00am 22.7 SSE 6 7 1010.4 - 0.0 - - 10 - - - -
24/05:30am 21.9 S 6 9 1010.1 - 0.0 - - 10 - - - -
24/05:00am 22.0 S 5 6 1009.7 - 0.0 - - 10 - - - -
24/04:30am 22.2 S 5 7 1009.5 - 0.0 - - 10 - - - -
24/04:00am 21.9 SW 6 6 1009.1 - 0.0 - - 10 - - - -
24/03:30am 22.2 WSW 5 6 1009.0 - 0.0 - - 10 - - - -
24/03:00am 22.3 ESE 3 4 1009.0 - 0.0 - - 10 - - - -
24/02:30am 23.1 ESE 1 4 1009.0 - 0.0 - - 10 - - - -
24/02:00am 23.6 CALM 0 0 1009.2 - 0.0 - - 10 - - - -
24/01:30am 23.8 N 4 8 1009.7 - 0.0 - - 10 - - - -
24/01:00am 24.8 NNE 6 10 1009.5 - 0.0 - - 10 - - - -
24/12:30am 26.2 WSW 7 10 - - 0.0 - - 10 - - - -
24/12:00am 25.6 W 9 11 1009.7 - 0.0 - - 10 - - - -
 
Date/Time
WST
Temp

°C
Wind Pressure Rain
since 9am
mm
Weather Cloud Vis
km
Sea
Height
m
Swell
Dir
 
Speed
knots
Gust
knots
hPa Trend Height
m
Period
s
Dir
23/11:30pm 25.7 W 9 11 1009.9 - 0.0 - - 10 - - - -
23/11:00pm 26.1 W 10 12 1010.1 - 0.0 - - 10 - - - -
23/10:30pm 26.6 W 12 15 1010.2 - 0.0 - - 10 - - - -
23/10:00pm 27.0 W 12 15 1010.4 - 0.0 - - 10 - - - -
23/09:30pm 27.0 W 9 11 1010.6 - 0.0 - - 10 - - - -
23/09:00pm 27.0 W 9 11 1010.4 - 0.0 - - 10 - - - -
23/08:30pm 27.2 W 9 11 1010.1 - 0.0 - - 10 - - - -
23/08:00pm 27.8 W 10 13 1010.0 - 0.0 - - 10 - - - -
23/07:30pm 28.3 W 10 14 1009.7 - 0.0 - - 10 - - - -
23/07:00pm 28.9 W 13 16 1009.3 - 0.0 - - 10 - - - -
23/06:30pm 29.6 W 14 18 1009.0 - 0.0 - - 10 - - - -
23/06:00pm 30.6 W 15 20 1008.6 - 0.0 - - 10 - - - -
23/05:30pm 31.7 W 17 22 1008.4 - 0.0 - - 10 - - - -
23/05:00pm 33.6 WNW 16 20 1008.2 - 0.0 - - 10 - - - -
23/04:30pm 34.5 WNW 18 22 1008.1 - 0.0 - - 10 - - - -
23/04:00pm 35.6 WNW 17 21 1008.2 - 0.0 - - 10 - - - -
23/03:30pm 36.7 WNW 20 23 1008.2 - 0.0 - - 10 - - - -
23/03:00pm 37.8 WNW 18 24 1008.3 R 0.0 Fine Mostly clear 30 - - - -
23/02:30pm 38.2 WNW 19 23 1008.5 - 0.0 - - 10 - - - -
23/02:00pm 37.8 NW 19 22 1008.6 - 0.0 - - 10 - - - -
23/01:30pm 37.9 NW 18 22 1008.9 - 0.0 - - 10 - - - -
23/01:00pm 38.8 NW 15 19 1009.2 - 0.0 - - 10 - - - -
23/12:30pm 39.6 NNW 13 16 1009.7 - 0.0 - - 10 - - - -
23/12:00pm 39.0 NNW 13 18 1009.9 R 0.0 Fine Mostly clear 25 - - - -
23/11:30am 40.7 SSW 5 9 1010.4 - 0.0 - - 10 - - - -
23/11:00am 40.7 S 8 15 1010.7 - 0.0 - - 10 - - - -
23/10:30am 40.3 S 8 16 1011.0 - 0.0 - - 10 - - - -
23/10:00am 39.7 S 9 16 1011.1 - 0.0 - - 10 - - - -
23/09:30am 37.8 SSE 9 14 1011.2 - 0.0 - - 10 - - - -
23/09:00am 36.5 SSE 9 14 1011.5 F 0.0 Fine Mostly cloudy 30 - - - -
23/08:30am 34.7 SSE 9 13 1011.6 - 0.0 - - 10 - - - -
23/08:00am 32.1 SSW 7 9 1011.6 - 0.0 - - 10 - - - -
23/07:30am 29.8 SW 7 9 1011.5 - 0.0 - - 10 - - - -
23/07:00am 27.7 WSW 7 8 1011.2 - 0.0 - - 10 - - - -
23/06:30am 26.2 SW 5 7 1010.8 - 0.0 - - 10 - - - -
23/06:00am 22.9 WSW 7 8 1010.6 R 0.0 Fine Mostly cloudy 30 - - - -
23/05:30am 22.6 WSW 4 5 1010.5 - 0.0 - - 10 - - - -
23/05:00am 23.9 SSW 4 6 1010.2 - 0.0 - - 10 - - - -
23/04:30am 24.4 S 4 4 1009.8 - 0.0 - - 10 - - - -
23/04:00am 25.3 S 4 5 1009.3 - 0.0 - - 10 - - - -
23/03:30am 25.3 SSW 6 8 1009.2 - 0.0 - - 10 - - - -
23/03:00am 25.5 SSW 1 5 1009.2 - 0.0 - - 10 - - - -
23/02:30am 26.8 SSW 5 7 1009.4 - 0.0 - - 10 - - - -
23/02:00am 25.3 WSW 6 8 1009.0 - 0.0 - - 10 - - - -
23/01:30am 27.5 WSW 8 9 1009.0 - 0.0 - - 10 - - - -
23/01:00am 29.8 SW 11 13 1009.0 - 0.0 - - 10 - - - -
23/12:30am 30.0 SW 13 16 1009.3 - 0.0 - - 10 - - - -
23/12:00am 30.0 SW 13 16 1009.7 - 0.0 - - 10 - - - -
 
Date/Time
WST
Temp

°C
Wind Pressure Rain
since 9am
mm
Weather Cloud Vis
km
Sea
Height
m
Swell
Dir
 
Speed
knots
Gust
knots
hPa Trend Height
m
Period
s
Dir
22/11:30pm 29.5 SW 12 16 1010.1 - 0.0 - - 10 - - - -
22/11:00pm 28.4 WSW 11 13 1010.7 - 0.0 - - 10 - - - -
22/10:30pm 27.1 WSW 10 12 1011.0 - 0.0 - - 10 - - - -
22/10:00pm 27.4 W 9 11 1011.1 - 0.0 - - 10 - - - -
22/09:30pm 27.6 W 8 11 1011.3 - 0.0 - - 10 - - - -
22/09:00pm 27.8 W 10 14 1011.3 - 0.0 - - 10 - - - -
22/08:30pm 28.0 W 11 13 1011.3 - 0.0 - - 10 - - - -
22/08:00pm 28.2 W 11 14 1011.0 - 0.0 - - 10 - - - -
22/07:30pm 28.4 W 9 12 1010.8 - 0.0 - - 10 - - - -
22/07:00pm 28.9 WNW 10 13 1010.6 - 0.0 - - 10 - - - -
22/06:30pm 29.5 W 9 12 1010.3 - 0.0 - - 10 - - - -
22/06:00pm 30.5 W 13 18 1009.9 - 0.0 - - 10 - - - -
22/05:30pm 31.9 WNW 14 19 1009.7 - 0.0 - - 10 - - - -
22/05:00pm 32.8 WNW 16 20 1009.5 - 0.0 - - 10 - - - -
22/04:30pm 34.5 NW 13 17 1009.4 - 0.0 - - 10 - - - -
22/04:00pm 35.9 NW 16 20 1009.3 - 0.0 - - 10 - - - -
22/03:30pm 37.0 NW 14 18 1009.3 - 0.0 - - 10 - - - -
22/03:00pm 37.3 NW 14 17 1009.5 F 0.0 Fine Mostly clear 30 - - - -
22/02:30pm 38.1 NW 14 18 1009.6 - 0.0 - - 10 - - - -
22/02:00pm 39.4 NW 15 18 1009.9 - 0.0 - - 10 - - - -
22/01:30pm 39.7 NNW 14 19 1010.2 - 0.0 Dust Mostly clear 10 - - - -
22/01:00pm 40.6 NNW 14 17 1010.5 - 0.0 - - 10 - - - -
22/12:30pm 41.6 ESE 9 12 1010.9 - 0.0 - - 10 - - - -
22/12:00pm 41.4 E 7 14 1011.4 S 0.0 Dust Mostly clear 30 - - - -
22/11:30am 41.3 WNW 7 9 1011.8 - 0.0 - - 10 - - - -
22/11:00am 40.9 SW 7 14 1012.2 - 0.0 - - 10 - - - -
22/10:30am 40.4 S 12 16 1012.5 - 0.0 - - 10 - - - -
22/10:00am 40.0 SSW 15 19 1012.7 - 0.0 - - 10 - - - -
22/09:30am 39.0 SSW 17 21 1012.8 - 0.0 - - 10 - - - -
22/09:00am 38.3 S 14 18 1013.1 F 0.0 Fine Mostly clear 30 - - - -
22/08:30am 36.7 S 16 21 1012.9 - 0.0 - - 10 - - - -
22/08:00am 34.7 S 17 21 1012.8 - 0.0 - - 10 - - - -
22/07:30am 32.7 SSW 15 21 1012.6 - 0.0 - - 10 - - - -
22/07:21am 31.7 SSW 17 22 1012.4 - 0.0 - - 10 - - - -
22/07:00am 28.3 S 10 12 1013.1 - 0.0 - - 10 - - - -
22/06:30am 24.6 W 6 8 1013.2 - 0.0 - - 10 - - - -
22/06:00am 22.2 S 5 6 1012.8 F 0.0 Fine Mostly clear 30 - - - -
22/05:30am 20.1 SW 4 6 1012.6 - 0.0 - - 10 - - - -
22/05:00am 22.4 S 6 9 1012.1 - 0.0 - - 10 - - - -
22/04:30am 23.6 S 10 12 1011.7 - 0.0 - - 10 - - - -
22/04:00am 23.4 SSW 10 13 1011.6 - 0.0 - - 10 - - - -
22/03:30am 22.7 S 8 9 1011.5 - 0.0 - - 10 - - - -
22/03:00am 22.8 S 8 11 1011.7 - 0.0 - - 10 - - - -
22/02:30am 23.3 S 8 10 1011.8 - 0.0 - - 10 - - - -
22/02:00am 24.0 SSW 8 10 1011.8 - 0.0 - - 10 - - - -
22/01:30am 23.9 SW 7 10 1012.1 - 0.0 - - 10 - - - -
22/01:00am 23.2 SSW 6 7 1012.5 - 0.0 - - 10 - - - -
22/12:30am 23.4 SW 6 7 1012.6 - 0.0 - - 10 - - - -
22/12:00am 24.5 SSW 6 7 1012.9 - 0.0 - - 10 - - - -
 
Date/Time
WST
Temp

°C
Wind Pressure Rain
since 9am
mm
Weather Cloud Vis
km
Sea
Height
m
Swell
Dir
 
Speed
knots
Gust
knots
hPa Trend Height
m
Period
s
Dir
21/11:30pm 25.9 SW 9 11 1013.1 - 0.0 - - 10 - - - -
21/11:00pm 24.1 WSW 7 8 1013.4 - 0.0 - - 10 - - - -
21/10:30pm 24.7 WSW 8 9 1014.0 - 0.0 - - 10 - - - -
21/10:00pm 26.5 WSW 8 10 1013.9 - 0.0 - - 10 - - - -
21/09:30pm 27.2 WSW 10 12 1014.0 - 0.0 - - 10 - - - -
21/09:00pm 27.6 WSW 10 12 1014.1 - 0.0 - - 10 - - - -
21/08:30pm 28.2 WSW 10 13 1014.0 - 0.0 - - 10 - - - -
21/08:00pm 29.3 WSW 12 16 1013.7 - 0.0 - - 10 - - - -
21/07:30pm 29.6 WSW 13 16 1013.5 - 0.0 - - 10 - - - -
21/07:00pm 30.4 WSW 11 14 1013.1 - 0.0 - - 10 - - - -
21/06:30pm 31.4 WSW 11 13 1012.8 - 0.0 - - 10 - - - -
21/06:00pm 33.2 W 13 16 1012.5 - 0.0 - - 10 - - - -
21/05:30pm 34.1 W 12 15 1012.4 - 0.0 - - 10 - - - -
21/05:00pm 34.9 WNW 13 16 1012.4 - 0.0 - - 10 - - - -
21/04:30pm 35.8 WNW 15 18 1012.3 - 0.0 - - 10 - - - -
21/04:00pm 36.6 WNW 15 19 1012.3 - 0.0 - - 10 - - - -
21/03:30pm 36.4 NW 15 17 1012.3 - 0.0 - - 10 - - - -
21/03:00pm 36.7 NW 14 16 1012.5 F 0.0 Smoke Mostly clear 30 - - - -

Other Formats:

Comma delimited format used in spreadsheet applications
http://www.bom.gov.au/fwo/IDW60701/IDW60701.94312.axf

JavaScript Object Notation format (JSON) in row-major order
http://www.bom.gov.au/fwo/IDW60701/IDW60701.94312.json